sensor_id;sensor_type;location;lat;lon;timestamp;P1;durP1;ratioP1;P2;durP2;ratioP2
25567;SDS011;13455;51.480;7.594;2023-08-24T00:00:39;11.70;;;8.07;;
25567;SDS011;13455;51.480;7.594;2023-08-24T00:03:05;12.37;;;8.07;;
25567;SDS011;13455;51.480;7.594;2023-08-24T00:05:34;11.60;;;8.20;;
25567;SDS011;13455;51.480;7.594;2023-08-24T00:08:05;14.88;;;8.20;;
25567;SDS011;13455;51.480;7.594;2023-08-24T00:10:31;13.13;;;8.00;;
25567;SDS011;13455;51.480;7.594;2023-08-24T00:12:57;13.55;;;8.32;;
25567;SDS011;13455;51.480;7.594;2023-08-24T00:15:23;12.13;;;8.38;;
25567;SDS011;13455;51.480;7.594;2023-08-24T00:17:49;13.98;;;8.15;;
25567;SDS011;13455;51.480;7.594;2023-08-24T00:20:15;12.95;;;8.00;;
25567;SDS011;13455;51.480;7.594;2023-08-24T00:22:41;11.93;;;7.68;;
25567;SDS011;13455;51.480;7.594;2023-08-24T00:25:08;13.95;;;7.72;;
25567;SDS011;13455;51.480;7.594;2023-08-24T00:27:34;12.85;;;7.82;;
25567;SDS011;13455;51.480;7.594;2023-08-24T00:30:04;13.68;;;7.85;;
25567;SDS011;13455;51.480;7.594;2023-08-24T00:32:34;11.82;;;8.00;;
25567;SDS011;13455;51.480;7.594;2023-08-24T00:35:04;12.85;;;7.90;;
25567;SDS011;13455;51.480;7.594;2023-08-24T00:37:31;11.53;;;7.60;;
25567;SDS011;13455;51.480;7.594;2023-08-24T00:39:59;12.02;;;7.95;;
25567;SDS011;13455;51.480;7.594;2023-08-24T00:42:28;13.13;;;7.95;;
25567;SDS011;13455;51.480;7.594;2023-08-24T00:44:54;14.35;;;8.25;;
25567;SDS011;13455;51.480;7.594;2023-08-24T00:47:20;11.50;;;8.07;;
25567;SDS011;13455;51.480;7.594;2023-08-24T00:49:47;15.15;;;8.32;;
25567;SDS011;13455;51.480;7.594;2023-08-24T00:52:13;12.87;;;8.07;;
25567;SDS011;13455;51.480;7.594;2023-08-24T00:54:39;15.82;;;9.07;;
25567;SDS011;13455;51.480;7.594;2023-08-24T00:57:06;13.45;;;9.05;;
25567;SDS011;13455;51.480;7.594;2023-08-24T00:59:33;15.48;;;9.55;;
25567;SDS011;13455;51.480;7.594;2023-08-24T01:01:59;16.97;;;9.93;;
25567;SDS011;13455;51.480;7.594;2023-08-24T01:04:26;15.45;;;9.93;;
25567;SDS011;13455;51.480;7.594;2023-08-24T01:06:52;13.90;;;10.00;;
25567;SDS011;13455;51.480;7.594;2023-08-24T01:09:18;15.73;;;9.95;;
25567;SDS011;13455;51.480;7.594;2023-08-24T01:11:49;14.63;;;10.50;;
25567;SDS011;13455;51.480;7.594;2023-08-24T01:16:48;15.27;;;10.85;;
25567;SDS011;13455;51.480;7.594;2023-08-24T01:19:31;15.48;;;10.38;;
25567;SDS011;13455;51.480;7.594;2023-08-24T01:22:01;16.63;;;11.80;;
25567;SDS011;13455;51.480;7.594;2023-08-24T01:24:33;16.00;;;10.90;;
25567;SDS011;13455;51.480;7.594;2023-08-24T01:27:02;18.23;;;10.85;;
25567;SDS011;13455;51.480;7.594;2023-08-24T01:29:29;16.80;;;10.20;;
25567;SDS011;13455;51.480;7.594;2023-08-24T01:31:55;14.93;;;10.23;;
25567;SDS011;13455;51.480;7.594;2023-08-24T01:34:22;13.52;;;10.07;;
25567;SDS011;13455;51.480;7.594;2023-08-24T01:36:48;13.50;;;9.75;;
25567;SDS011;13455;51.480;7.594;2023-08-24T01:39:27;12.77;;;9.93;;
25567;SDS011;13455;51.480;7.594;2023-08-24T01:41:55;13.70;;;9.93;;
25567;SDS011;13455;51.480;7.594;2023-08-24T01:44:21;13.23;;;9.75;;
25567;SDS011;13455;51.480;7.594;2023-08-24T01:46:48;14.65;;;9.32;;
25567;SDS011;13455;51.480;7.594;2023-08-24T01:49:15;12.65;;;9.40;;
25567;SDS011;13455;51.480;7.594;2023-08-24T01:51:42;12.88;;;9.15;;
25567;SDS011;13455;51.480;7.594;2023-08-24T01:54:08;15.50;;;8.73;;
25567;SDS011;13455;51.480;7.594;2023-08-24T01:56:34;15.10;;;9.13;;
25567;SDS011;13455;51.480;7.594;2023-08-24T01:59:00;13.52;;;8.90;;
25567;SDS011;13455;51.480;7.594;2023-08-24T02:01:26;13.68;;;8.70;;
25567;SDS011;13455;51.480;7.594;2023-08-24T02:03:52;16.08;;;9.30;;
25567;SDS011;13455;51.480;7.594;2023-08-24T02:06:18;11.40;;;9.20;;
25567;SDS011;13455;51.480;7.594;2023-08-24T02:08:44;13.57;;;8.93;;
25567;SDS011;13455;51.480;7.594;2023-08-24T02:11:10;16.27;;;9.40;;
25567;SDS011;13455;51.480;7.594;2023-08-24T02:13:36;14.13;;;9.32;;
25567;SDS011;13455;51.480;7.594;2023-08-24T02:16:02;12.82;;;9.23;;
25567;SDS011;13455;51.480;7.594;2023-08-24T02:18:28;13.68;;;9.38;;
25567;SDS011;13455;51.480;7.594;2023-08-24T02:20:54;13.18;;;9.32;;
25567;SDS011;13455;51.480;7.594;2023-08-24T02:23:20;13.52;;;9.50;;
25567;SDS011;13455;51.480;7.594;2023-08-24T02:25:46;12.63;;;9.75;;
25567;SDS011;13455;51.480;7.594;2023-08-24T02:28:12;14.35;;;9.10;;
25567;SDS011;13455;51.480;7.594;2023-08-24T02:30:38;14.48;;;9.65;;
25567;SDS011;13455;51.480;7.594;2023-08-24T02:33:04;15.18;;;9.30;;
25567;SDS011;13455;51.480;7.594;2023-08-24T02:35:30;14.70;;;9.80;;
25567;SDS011;13455;51.480;7.594;2023-08-24T02:37:56;14.95;;;9.73;;
25567;SDS011;13455;51.480;7.594;2023-08-24T02:40:23;13.57;;;9.93;;
25567;SDS011;13455;51.480;7.594;2023-08-24T02:42:49;13.93;;;10.23;;
25567;SDS011;13455;51.480;7.594;2023-08-24T02:45:15;15.65;;;10.30;;
25567;SDS011;13455;51.480;7.594;2023-08-24T02:47:41;14.48;;;9.80;;
25567;SDS011;13455;51.480;7.594;2023-08-24T02:50:07;15.05;;;9.93;;
25567;SDS011;13455;51.480;7.594;2023-08-24T02:52:33;15.85;;;10.38;;
25567;SDS011;13455;51.480;7.594;2023-08-24T02:54:59;13.40;;;10.27;;
25567;SDS011;13455;51.480;7.594;2023-08-24T02:57:25;12.53;;;9.80;;
25567;SDS011;13455;51.480;7.594;2023-08-24T02:59:51;14.32;;;9.95;;
25567;SDS011;13455;51.480;7.594;2023-08-24T03:02:17;15.02;;;10.05;;
25567;SDS011;13455;51.480;7.594;2023-08-24T03:04:43;13.98;;;9.65;;
25567;SDS011;13455;51.480;7.594;2023-08-24T03:07:09;13.93;;;9.20;;
25567;SDS011;13455;51.480;7.594;2023-08-24T03:09:35;13.90;;;9.25;;
25567;SDS011;13455;51.480;7.594;2023-08-24T03:12:02;14.07;;;9.23;;
25567;SDS011;13455;51.480;7.594;2023-08-24T03:14:28;13.60;;;9.00;;
25567;SDS011;13455;51.480;7.594;2023-08-24T03:16:54;16.45;;;9.18;;
25567;SDS011;13455;51.480;7.594;2023-08-24T03:19:20;12.95;;;9.18;;
25567;SDS011;13455;51.480;7.594;2023-08-24T03:21:46;13.32;;;9.15;;
25567;SDS011;13455;51.480;7.594;2023-08-24T03:24:12;13.38;;;9.10;;
25567;SDS011;13455;51.480;7.594;2023-08-24T03:26:38;12.73;;;9.65;;
25567;SDS011;13455;51.480;7.594;2023-08-24T03:29:04;12.68;;;10.00;;
25567;SDS011;13455;51.480;7.594;2023-08-24T03:31:30;13.75;;;9.30;;
25567;SDS011;13455;51.480;7.594;2023-08-24T03:33:56;13.82;;;9.65;;
25567;SDS011;13455;51.480;7.594;2023-08-24T03:36:22;11.43;;;9.10;;
25567;SDS011;13455;51.480;7.594;2023-08-24T03:38:47;14.68;;;9.32;;
25567;SDS011;13455;51.480;7.594;2023-08-24T03:41:13;13.35;;;9.27;;
25567;SDS011;13455;51.480;7.594;2023-08-24T03:43:40;13.95;;;8.90;;
25567;SDS011;13455;51.480;7.594;2023-08-24T03:46:06;13.23;;;9.25;;
25567;SDS011;13455;51.480;7.594;2023-08-24T03:48:32;13.10;;;9.60;;
25567;SDS011;13455;51.480;7.594;2023-08-24T03:50:58;13.93;;;9.75;;
25567;SDS011;13455;51.480;7.594;2023-08-24T03:53:24;15.90;;;9.57;;
25567;SDS011;13455;51.480;7.594;2023-08-24T03:55:51;12.53;;;8.90;;
25567;SDS011;13455;51.480;7.594;2023-08-24T03:58:17;17.23;;;9.55;;
25567;SDS011;13455;51.480;7.594;2023-08-24T04:00:44;12.93;;;9.00;;
25567;SDS011;13455;51.480;7.594;2023-08-24T04:03:10;14.10;;;9.10;;
25567;SDS011;13455;51.480;7.594;2023-08-24T04:05:36;12.85;;;8.70;;
25567;SDS011;13455;51.480;7.594;2023-08-24T04:08:02;15.15;;;9.77;;
25567;SDS011;13455;51.480;7.594;2023-08-24T04:10:29;11.50;;;9.18;;
25567;SDS011;13455;51.480;7.594;2023-08-24T04:12:55;12.88;;;9.85;;
25567;SDS011;13455;51.480;7.594;2023-08-24T04:15:21;14.13;;;9.63;;
25567;SDS011;13455;51.480;7.594;2023-08-24T04:17:47;13.50;;;9.77;;
25567;SDS011;13455;51.480;7.594;2023-08-24T04:20:13;14.65;;;9.82;;
25567;SDS011;13455;51.480;7.594;2023-08-24T04:22:41;15.25;;;10.05;;
25567;SDS011;13455;51.480;7.594;2023-08-24T04:25:07;13.40;;;9.75;;
25567;SDS011;13455;51.480;7.594;2023-08-24T04:27:33;17.42;;;10.18;;
25567;SDS011;13455;51.480;7.594;2023-08-24T04:29:59;15.73;;;10.77;;
25567;SDS011;13455;51.480;7.594;2023-08-24T04:32:25;18.20;;;10.93;;
25567;SDS011;13455;51.480;7.594;2023-08-24T04:34:51;16.08;;;9.48;;
25567;SDS011;13455;51.480;7.594;2023-08-24T04:37:17;14.27;;;9.52;;
25567;SDS011;13455;51.480;7.594;2023-08-24T04:39:43;15.43;;;9.13;;
25567;SDS011;13455;51.480;7.594;2023-08-24T04:42:09;14.60;;;9.50;;
25567;SDS011;13455;51.480;7.594;2023-08-24T04:44:35;17.88;;;10.15;;
25567;SDS011;13455;51.480;7.594;2023-08-24T04:47:01;18.08;;;10.70;;
25567;SDS011;13455;51.480;7.594;2023-08-24T04:49:29;14.90;;;10.65;;
25567;SDS011;13455;51.480;7.594;2023-08-24T04:51:55;13.95;;;10.40;;
25567;SDS011;13455;51.480;7.594;2023-08-24T04:54:21;13.18;;;10.75;;
25567;SDS011;13455;51.480;7.594;2023-08-24T04:56:47;16.45;;;11.20;;
25567;SDS011;13455;51.480;7.594;2023-08-24T04:59:13;15.80;;;11.52;;
25567;SDS011;13455;51.480;7.594;2023-08-24T05:01:39;15.93;;;12.07;;
25567;SDS011;13455;51.480;7.594;2023-08-24T05:04:05;14.07;;;11.35;;
25567;SDS011;13455;51.480;7.594;2023-08-24T05:06:31;15.77;;;11.93;;
25567;SDS011;13455;51.480;7.594;2023-08-24T05:08:57;16.95;;;11.25;;
25567;SDS011;13455;51.480;7.594;2023-08-24T05:11:24;17.05;;;11.52;;
25567;SDS011;13455;51.480;7.594;2023-08-24T05:13:51;17.13;;;11.03;;
25567;SDS011;13455;51.480;7.594;2023-08-24T05:16:17;15.02;;;10.20;;
25567;SDS011;13455;51.480;7.594;2023-08-24T05:18:43;13.80;;;10.00;;
25567;SDS011;13455;51.480;7.594;2023-08-24T05:21:09;13.98;;;9.63;;
25567;SDS011;13455;51.480;7.594;2023-08-24T05:23:35;13.00;;;9.98;;
25567;SDS011;13455;51.480;7.594;2023-08-24T05:26:01;14.43;;;10.02;;
25567;SDS011;13455;51.480;7.594;2023-08-24T05:28:28;15.48;;;9.57;;
25567;SDS011;13455;51.480;7.594;2023-08-24T05:30:55;11.13;;;9.10;;
25567;SDS011;13455;51.480;7.594;2023-08-24T05:33:21;13.50;;;9.32;;
25567;SDS011;13455;51.480;7.594;2023-08-24T05:35:48;14.50;;;9.52;;
25567;SDS011;13455;51.480;7.594;2023-08-24T05:38:14;12.57;;;9.23;;
25567;SDS011;13455;51.480;7.594;2023-08-24T05:40:42;12.37;;;9.40;;
25567;SDS011;13455;51.480;7.594;2023-08-24T05:43:08;13.02;;;9.05;;
25567;SDS011;13455;51.480;7.594;2023-08-24T05:45:34;16.48;;;8.70;;
25567;SDS011;13455;51.480;7.594;2023-08-24T05:48:00;13.05;;;8.52;;
25567;SDS011;13455;51.480;7.594;2023-08-24T05:50:26;13.43;;;8.43;;
25567;SDS011;13455;51.480;7.594;2023-08-24T05:52:52;15.07;;;8.50;;
25567;SDS011;13455;51.480;7.594;2023-08-24T05:55:18;13.02;;;8.63;;
25567;SDS011;13455;51.480;7.594;2023-08-24T05:57:44;12.27;;;8.10;;
25567;SDS011;13455;51.480;7.594;2023-08-24T06:00:10;11.60;;;7.30;;
25567;SDS011;13455;51.480;7.594;2023-08-24T06:02:37;11.98;;;7.47;;
25567;SDS011;13455;51.480;7.594;2023-08-24T06:05:03;12.27;;;7.78;;
25567;SDS011;13455;51.480;7.594;2023-08-24T06:07:30;11.82;;;7.68;;
25567;SDS011;13455;51.480;7.594;2023-08-24T06:09:56;13.15;;;7.13;;
25567;SDS011;13455;51.480;7.594;2023-08-24T06:12:22;14.52;;;7.40;;
25567;SDS011;13455;51.480;7.594;2023-08-24T06:14:48;11.13;;;7.78;;
25567;SDS011;13455;51.480;7.594;2023-08-24T06:17:14;11.55;;;7.70;;
25567;SDS011;13455;51.480;7.594;2023-08-24T06:19:40;11.43;;;7.78;;
25567;SDS011;13455;51.480;7.594;2023-08-24T06:22:06;10.82;;;7.70;;
25567;SDS011;13455;51.480;7.594;2023-08-24T06:24:32;11.07;;;7.72;;
25567;SDS011;13455;51.480;7.594;2023-08-24T06:26:58;12.65;;;7.82;;
25567;SDS011;13455;51.480;7.594;2023-08-24T06:29:24;13.30;;;7.93;;
25567;SDS011;13455;51.480;7.594;2023-08-24T06:31:50;12.38;;;8.13;;
25567;SDS011;13455;51.480;7.594;2023-08-24T06:34:16;12.55;;;7.95;;
25567;SDS011;13455;51.480;7.594;2023-08-24T06:36:42;13.70;;;7.90;;
25567;SDS011;13455;51.480;7.594;2023-08-24T06:39:08;12.90;;;7.50;;
25567;SDS011;13455;51.480;7.594;2023-08-24T06:41:35;11.33;;;7.73;;
25567;SDS011;13455;51.480;7.594;2023-08-24T06:44:01;12.88;;;7.82;;
25567;SDS011;13455;51.480;7.594;2023-08-24T06:46:27;13.15;;;7.70;;
25567;SDS011;13455;51.480;7.594;2023-08-24T06:48:53;13.80;;;7.70;;
25567;SDS011;13455;51.480;7.594;2023-08-24T06:51:19;12.63;;;8.00;;
25567;SDS011;13455;51.480;7.594;2023-08-24T06:53:45;13.77;;;7.70;;
25567;SDS011;13455;51.480;7.594;2023-08-24T06:56:14;15.85;;;7.68;;
25567;SDS011;13455;51.480;7.594;2023-08-24T06:58:40;12.00;;;7.35;;
25567;SDS011;13455;51.480;7.594;2023-08-24T07:01:07;10.00;;;6.55;;
25567;SDS011;13455;51.480;7.594;2023-08-24T07:03:33;11.65;;;6.82;;
25567;SDS011;13455;51.480;7.594;2023-08-24T07:05:59;12.52;;;7.38;;
25567;SDS011;13455;51.480;7.594;2023-08-24T07:08:25;13.10;;;7.40;;
25567;SDS011;13455;51.480;7.594;2023-08-24T07:10:51;12.82;;;7.63;;
25567;SDS011;13455;51.480;7.594;2023-08-24T07:13:17;12.30;;;7.57;;
25567;SDS011;13455;51.480;7.594;2023-08-24T07:15:43;12.43;;;7.65;;
25567;SDS011;13455;51.480;7.594;2023-08-24T07:18:10;12.50;;;7.07;;
25567;SDS011;13455;51.480;7.594;2023-08-24T07:20:37;11.98;;;7.68;;
25567;SDS011;13455;51.480;7.594;2023-08-24T07:23:03;13.25;;;7.10;;
25567;SDS011;13455;51.480;7.594;2023-08-24T07:25:29;12.85;;;7.03;;
25567;SDS011;13455;51.480;7.594;2023-08-24T07:27:55;12.23;;;6.87;;
25567;SDS011;13455;51.480;7.594;2023-08-24T07:30:26;10.55;;;6.70;;
25567;SDS011;13455;51.480;7.594;2023-08-24T07:32:55;11.53;;;6.63;;
25567;SDS011;13455;51.480;7.594;2023-08-24T07:35:21;10.48;;;6.15;;
25567;SDS011;13455;51.480;7.594;2023-08-24T07:37:50;11.52;;;6.30;;
25567;SDS011;13455;51.480;7.594;2023-08-24T07:42:47;10.50;;;5.40;;
25567;SDS011;13455;51.480;7.594;2023-08-24T07:45:16;9.85;;;5.35;;
25567;SDS011;13455;51.480;7.594;2023-08-24T07:47:42;12.32;;;5.63;;
25567;SDS011;13455;51.480;7.594;2023-08-24T07:50:08;10.38;;;5.43;;
25567;SDS011;13455;51.480;7.594;2023-08-24T07:55:02;10.40;;;5.03;;
25567;SDS011;13455;51.480;7.594;2023-08-24T07:57:29;9.20;;;4.85;;
25567;SDS011;13455;51.480;7.594;2023-08-24T07:59:57;9.07;;;5.03;;
25567;SDS011;13455;51.480;7.594;2023-08-24T08:02:23;11.20;;;5.17;;
25567;SDS011;13455;51.480;7.594;2023-08-24T08:04:48;8.55;;;3.97;;
25567;SDS011;13455;51.480;7.594;2023-08-24T08:07:14;7.13;;;3.50;;
25567;SDS011;13455;51.480;7.594;2023-08-24T08:09:40;6.47;;;3.10;;
25567;SDS011;13455;51.480;7.594;2023-08-24T08:12:06;9.38;;;2.90;;
25567;SDS011;13455;51.480;7.594;2023-08-24T08:14:32;9.88;;;3.17;;
25567;SDS011;13455;51.480;7.594;2023-08-24T08:16:58;8.95;;;3.20;;
25567;SDS011;13455;51.480;7.594;2023-08-24T08:19:23;6.27;;;3.10;;
25567;SDS011;13455;51.480;7.594;2023-08-24T08:21:53;5.37;;;2.83;;
25567;SDS011;13455;51.480;7.594;2023-08-24T08:24:19;5.23;;;2.80;;
25567;SDS011;13455;51.480;7.594;2023-08-24T08:26:45;6.90;;;3.03;;
25567;SDS011;13455;51.480;7.594;2023-08-24T08:29:10;6.82;;;3.15;;
25567;SDS011;13455;51.480;7.594;2023-08-24T08:31:36;9.27;;;2.83;;
25567;SDS011;13455;51.480;7.594;2023-08-24T08:34:02;6.55;;;2.80;;
25567;SDS011;13455;51.480;7.594;2023-08-24T08:36:31;4.70;;;2.45;;
25567;SDS011;13455;51.480;7.594;2023-08-24T08:38:59;6.53;;;2.78;;
25567;SDS011;13455;51.480;7.594;2023-08-24T08:41:27;6.20;;;2.80;;
25567;SDS011;13455;51.480;7.594;2023-08-24T08:43:55;6.78;;;2.60;;
25567;SDS011;13455;51.480;7.594;2023-08-24T08:46:21;7.90;;;3.00;;
25567;SDS011;13455;51.480;7.594;2023-08-24T08:48:47;8.32;;;3.10;;
25567;SDS011;13455;51.480;7.594;2023-08-24T08:51:15;6.57;;;2.70;;
25567;SDS011;13455;51.480;7.594;2023-08-24T08:53:42;7.00;;;2.95;;
25567;SDS011;13455;51.480;7.594;2023-08-24T08:56:08;7.72;;;2.75;;
25567;SDS011;13455;51.480;7.594;2023-08-24T08:58:34;6.30;;;2.70;;
25567;SDS011;13455;51.480;7.594;2023-08-24T09:01:02;6.43;;;2.70;;
25567;SDS011;13455;51.480;7.594;2023-08-24T09:03:28;6.82;;;2.95;;
25567;SDS011;13455;51.480;7.594;2023-08-24T09:05:56;9.52;;;2.90;;
25567;SDS011;13455;51.480;7.594;2023-08-24T09:08:22;5.68;;;2.60;;
25567;SDS011;13455;51.480;7.594;2023-08-24T09:10:49;7.72;;;2.90;;
25567;SDS011;13455;51.480;7.594;2023-08-24T09:13:15;6.22;;;2.80;;
25567;SDS011;13455;51.480;7.594;2023-08-24T09:15:42;6.05;;;2.50;;
25567;SDS011;13455;51.480;7.594;2023-08-24T09:18:08;5.47;;;2.70;;
25567;SDS011;13455;51.480;7.594;2023-08-24T09:20:34;4.90;;;2.55;;
25567;SDS011;13455;51.480;7.594;2023-08-24T09:23:00;6.15;;;2.70;;
25567;SDS011;13455;51.480;7.594;2023-08-24T09:25:26;5.72;;;2.50;;
25567;SDS011;13455;51.480;7.594;2023-08-24T09:30:24;5.60;;;2.50;;
25567;SDS011;13455;51.480;7.594;2023-08-24T09:32:54;4.83;;;2.40;;
25567;SDS011;13455;51.480;7.594;2023-08-24T09:35:20;6.15;;;2.40;;
25567;SDS011;13455;51.480;7.594;2023-08-24T09:37:46;6.88;;;2.80;;
25567;SDS011;13455;51.480;7.594;2023-08-24T09:40:15;6.65;;;2.60;;
25567;SDS011;13455;51.480;7.594;2023-08-24T09:42:41;7.25;;;2.63;;
25567;SDS011;13455;51.480;7.594;2023-08-24T09:45:08;4.87;;;2.40;;
25567;SDS011;13455;51.480;7.594;2023-08-24T09:47:36;6.05;;;2.30;;
25567;SDS011;13455;51.480;7.594;2023-08-24T09:50:02;6.93;;;2.45;;
25567;SDS011;13455;51.480;7.594;2023-08-24T09:52:32;6.43;;;2.47;;
25567;SDS011;13455;51.480;7.594;2023-08-24T09:55:04;4.60;;;2.40;;
25567;SDS011;13455;51.480;7.594;2023-08-24T09:57:36;7.03;;;2.47;;
25567;SDS011;13455;51.480;7.594;2023-08-24T10:00:06;5.07;;;2.50;;
25567;SDS011;13455;51.480;7.594;2023-08-24T10:02:37;5.07;;;2.13;;
25567;SDS011;13455;51.480;7.594;2023-08-24T10:05:07;4.20;;;2.38;;
25567;SDS011;13455;51.480;7.594;2023-08-24T10:07:34;8.02;;;2.50;;
25567;SDS011;13455;51.480;7.594;2023-08-24T10:10:03;5.72;;;2.15;;
25567;SDS011;13455;51.480;7.594;2023-08-24T10:12:32;5.13;;;2.17;;
25567;SDS011;13455;51.480;7.594;2023-08-24T10:15:04;6.07;;;2.22;;
25567;SDS011;13455;51.480;7.594;2023-08-24T10:17:32;5.43;;;2.22;;
25567;SDS011;13455;51.480;7.594;2023-08-24T10:20:01;7.13;;;2.30;;
25567;SDS011;13455;51.480;7.594;2023-08-24T10:22:30;7.05;;;2.35;;
25567;SDS011;13455;51.480;7.594;2023-08-24T10:24:56;6.05;;;2.47;;
25567;SDS011;13455;51.480;7.594;2023-08-24T10:27:23;4.55;;;2.20;;
25567;SDS011;13455;51.480;7.594;2023-08-24T10:29:49;6.03;;;2.30;;
25567;SDS011;13455;51.480;7.594;2023-08-24T10:32:15;6.83;;;2.20;;
25567;SDS011;13455;51.480;7.594;2023-08-24T10:34:41;4.78;;;2.20;;
25567;SDS011;13455;51.480;7.594;2023-08-24T10:37:10;3.88;;;2.10;;
25567;SDS011;13455;51.480;7.594;2023-08-24T10:39:37;5.90;;;2.20;;
25567;SDS011;13455;51.480;7.594;2023-08-24T10:42:10;5.00;;;2.10;;
25567;SDS011;13455;51.480;7.594;2023-08-24T10:44:37;6.63;;;2.20;;
25567;SDS011;13455;51.480;7.594;2023-08-24T10:47:22;6.55;;;2.33;;
25567;SDS011;13455;51.480;7.594;2023-08-24T10:52:21;5.55;;;2.25;;
25567;SDS011;13455;51.480;7.594;2023-08-24T10:54:48;5.18;;;2.20;;
25567;SDS011;13455;51.480;7.594;2023-08-24T10:57:17;6.70;;;2.28;;
25567;SDS011;13455;51.480;7.594;2023-08-24T10:59:44;5.63;;;2.30;;
25567;SDS011;13455;51.480;7.594;2023-08-24T11:02:18;5.00;;;2.17;;
25567;SDS011;13455;51.480;7.594;2023-08-24T11:07:29;4.68;;;2.20;;
25567;SDS011;13455;51.480;7.594;2023-08-24T11:09:55;5.38;;;2.03;;
25567;SDS011;13455;51.480;7.594;2023-08-24T11:12:21;3.87;;;2.20;;
25567;SDS011;13455;51.480;7.594;2023-08-24T11:14:50;4.60;;;2.30;;
25567;SDS011;13455;51.480;7.594;2023-08-24T11:17:19;5.25;;;2.20;;
25567;SDS011;13455;51.480;7.594;2023-08-24T11:19:47;7.33;;;2.30;;
25567;SDS011;13455;51.480;7.594;2023-08-24T11:22:14;5.40;;;2.40;;
25567;SDS011;13455;51.480;7.594;2023-08-24T11:24:41;5.28;;;2.20;;
25567;SDS011;13455;51.480;7.594;2023-08-24T11:27:08;7.65;;;2.22;;
25567;SDS011;13455;51.480;7.594;2023-08-24T11:29:34;5.50;;;2.15;;
25567;SDS011;13455;51.480;7.594;2023-08-24T11:32:00;6.70;;;2.13;;
25567;SDS011;13455;51.480;7.594;2023-08-24T11:34:27;9.13;;;2.20;;
25567;SDS011;13455;51.480;7.594;2023-08-24T11:36:53;6.43;;;2.40;;
25567;SDS011;13455;51.480;7.594;2023-08-24T11:39:20;6.90;;;2.10;;
25567;SDS011;13455;51.480;7.594;2023-08-24T11:42:01;6.28;;;2.10;;
25567;SDS011;13455;51.480;7.594;2023-08-24T11:44:28;6.97;;;2.25;;
25567;SDS011;13455;51.480;7.594;2023-08-24T11:46:57;3.78;;;1.95;;
25567;SDS011;13455;51.480;7.594;2023-08-24T11:49:24;4.28;;;2.00;;
25567;SDS011;13455;51.480;7.594;2023-08-24T11:51:50;3.28;;;1.77;;
25567;SDS011;13455;51.480;7.594;2023-08-24T11:54:19;5.68;;;2.10;;
25567;SDS011;13455;51.480;7.594;2023-08-24T11:56:46;4.18;;;1.83;;
25567;SDS011;13455;51.480;7.594;2023-08-24T11:59:12;4.88;;;1.98;;
25567;SDS011;13455;51.480;7.594;2023-08-24T12:01:39;4.35;;;1.80;;
25567;SDS011;13455;51.480;7.594;2023-08-24T12:04:06;5.20;;;1.95;;
25567;SDS011;13455;51.480;7.594;2023-08-24T12:06:31;4.90;;;1.70;;
25567;SDS011;13455;51.480;7.594;2023-08-24T12:08:57;3.50;;;2.10;;
25567;SDS011;13455;51.480;7.594;2023-08-24T12:11:23;4.38;;;2.00;;
25567;SDS011;13455;51.480;7.594;2023-08-24T12:13:55;3.92;;;1.90;;
25567;SDS011;13455;51.480;7.594;2023-08-24T12:16:21;4.47;;;1.90;;
25567;SDS011;13455;51.480;7.594;2023-08-24T12:18:55;4.78;;;2.00;;
25567;SDS011;13455;51.480;7.594;2023-08-24T12:21:24;6.60;;;2.20;;
25567;SDS011;13455;51.480;7.594;2023-08-24T12:24:00;7.07;;;2.30;;
25567;SDS011;13455;51.480;7.594;2023-08-24T12:26:31;4.97;;;2.10;;
25567;SDS011;13455;51.480;7.594;2023-08-24T12:29:01;6.10;;;2.30;;
25567;SDS011;13455;51.480;7.594;2023-08-24T12:31:28;4.90;;;2.00;;
25567;SDS011;13455;51.480;7.594;2023-08-24T12:34:04;6.40;;;2.20;;
25567;SDS011;13455;51.480;7.594;2023-08-24T12:36:35;7.18;;;2.28;;
25567;SDS011;13455;51.480;7.594;2023-08-24T12:39:03;7.55;;;2.10;;
25567;SDS011;13455;51.480;7.594;2023-08-24T12:41:30;5.18;;;2.13;;
25567;SDS011;13455;51.480;7.594;2023-08-24T12:43:56;6.63;;;2.10;;
25567;SDS011;13455;51.480;7.594;2023-08-24T12:46:22;6.50;;;2.20;;
25567;SDS011;13455;51.480;7.594;2023-08-24T12:48:49;6.90;;;2.20;;
25567;SDS011;13455;51.480;7.594;2023-08-24T12:51:15;5.80;;;2.10;;
25567;SDS011;13455;51.480;7.594;2023-08-24T12:53:41;7.60;;;2.47;;
25567;SDS011;13455;51.480;7.594;2023-08-24T12:56:07;8.55;;;2.40;;
25567;SDS011;13455;51.480;7.594;2023-08-24T12:58:33;6.73;;;2.10;;
25567;SDS011;13455;51.480;7.594;2023-08-24T13:00:59;6.78;;;2.00;;
25567;SDS011;13455;51.480;7.594;2023-08-24T13:03:25;10.70;;;2.33;;
25567;SDS011;13455;51.480;7.594;2023-08-24T13:05:51;9.57;;;2.35;;
25567;SDS011;13455;51.480;7.594;2023-08-24T13:08:17;5.25;;;2.20;;
25567;SDS011;13455;51.480;7.594;2023-08-24T13:10:42;8.77;;;2.10;;
25567;SDS011;13455;51.480;7.594;2023-08-24T13:13:08;8.07;;;2.70;;
25567;SDS011;13455;51.480;7.594;2023-08-24T13:15:34;6.70;;;2.30;;
25567;SDS011;13455;51.480;7.594;2023-08-24T13:17:59;6.85;;;2.00;;
25567;SDS011;13455;51.480;7.594;2023-08-24T13:20:25;5.17;;;2.10;;
25567;SDS011;13455;51.480;7.594;2023-08-24T13:22:52;5.18;;;2.22;;
25567;SDS011;13455;51.480;7.594;2023-08-24T13:25:18;6.25;;;2.00;;
25567;SDS011;13455;51.480;7.594;2023-08-24T13:27:44;4.82;;;2.20;;
25567;SDS011;13455;51.480;7.594;2023-08-24T13:30:10;6.87;;;2.10;;
25567;SDS011;13455;51.480;7.594;2023-08-24T13:32:36;7.28;;;2.20;;
25567;SDS011;13455;51.480;7.594;2023-08-24T13:35:04;7.70;;;2.43;;
25567;SDS011;13455;51.480;7.594;2023-08-24T13:37:30;6.18;;;2.10;;
25567;SDS011;13455;51.480;7.594;2023-08-24T13:39:55;6.67;;;2.30;;
25567;SDS011;13455;51.480;7.594;2023-08-24T13:42:21;8.35;;;2.15;;
25567;SDS011;13455;51.480;7.594;2023-08-24T13:44:47;9.80;;;2.38;;
25567;SDS011;13455;51.480;7.594;2023-08-24T13:47:13;6.60;;;2.10;;
25567;SDS011;13455;51.480;7.594;2023-08-24T13:49:39;6.68;;;2.10;;
25567;SDS011;13455;51.480;7.594;2023-08-24T13:52:06;8.63;;;2.20;;
25567;SDS011;13455;51.480;7.594;2023-08-24T13:54:32;6.07;;;2.15;;
25567;SDS011;13455;51.480;7.594;2023-08-24T13:56:57;5.90;;;2.13;;
25567;SDS011;13455;51.480;7.594;2023-08-24T13:59:25;6.82;;;2.35;;
25567;SDS011;13455;51.480;7.594;2023-08-24T14:01:51;6.63;;;2.40;;
25567;SDS011;13455;51.480;7.594;2023-08-24T14:04:17;5.18;;;2.10;;
25567;SDS011;13455;51.480;7.594;2023-08-24T14:06:43;8.38;;;2.40;;
25567;SDS011;13455;51.480;7.594;2023-08-24T14:09:09;7.75;;;2.20;;
25567;SDS011;13455;51.480;7.594;2023-08-24T14:11:35;5.57;;;2.10;;
25567;SDS011;13455;51.480;7.594;2023-08-24T14:14:01;8.18;;;2.40;;
25567;SDS011;13455;51.480;7.594;2023-08-24T14:16:26;7.07;;;2.40;;
25567;SDS011;13455;51.480;7.594;2023-08-24T14:18:52;6.40;;;2.30;;
25567;SDS011;13455;51.480;7.594;2023-08-24T14:21:18;6.40;;;2.10;;
25567;SDS011;13455;51.480;7.594;2023-08-24T14:23:48;7.13;;;2.15;;
25567;SDS011;13455;51.480;7.594;2023-08-24T14:26:15;7.10;;;2.13;;
25567;SDS011;13455;51.480;7.594;2023-08-24T14:28:51;6.05;;;2.17;;
25567;SDS011;13455;51.480;7.594;2023-08-24T14:31:24;4.25;;;2.10;;
25567;SDS011;13455;51.480;7.594;2023-08-24T14:33:50;4.47;;;2.13;;
25567;SDS011;13455;51.480;7.594;2023-08-24T14:36:17;5.70;;;2.10;;
25567;SDS011;13455;51.480;7.594;2023-08-24T14:38:43;3.97;;;2.10;;
25567;SDS011;13455;51.480;7.594;2023-08-24T14:41:09;5.97;;;2.33;;
25567;SDS011;13455;51.480;7.594;2023-08-24T14:43:36;7.83;;;2.03;;
25567;SDS011;13455;51.480;7.594;2023-08-24T14:46:02;7.30;;;2.40;;
25567;SDS011;13455;51.480;7.594;2023-08-24T14:48:28;6.50;;;2.20;;
25567;SDS011;13455;51.480;7.594;2023-08-24T14:50:54;6.88;;;2.50;;